Kansas City, Missouri
Current Conditions -  °F | °C
As of 6:09 PM on Friday 19 Dec 2014 (Local Time) from KMKC Reporting Station
Overcast Overcast  
Wind Chill: 35°   Ceiling: 1500
Heat Index: 35°   Visibility: 7mi
Dew Point: 31°   Wind: 0mph
Humidity: 85%   Direction: NA
Pressure: 30.21"   Gusts: NA
Location:  39.1°N, 94.58°W
Report Text: KMKC 200009Z 00000KT 7SM OVC015 02/M01 A3021 RMK AO2 T00171006
Loading
Personal Weather Stations






























Interactive Weather Map New forecast layout! Learn more

10-Day Weather Forecast

Advertisements
Track Severe Weather on mobile